This is the latest recevied weather packets stored in our database for station/object CQ0XPG-11. If no packets are shown the sender has not sent any weather packets the latest 1 day(s).
| Time | Temp. | Humidity | Pressure | Rain* | Wind** | Luminosity | Snow |
|---|---|---|---|---|---|---|---|
| 1778029910 | 6.11° C | 100% | 1005.3 hPa | 0 mm | 0 m/s | - | - |
| 1778029589 | 6.11° C | 100% | 1005.4 hPa | 0 mm | 0 m/s | - | - |
| 1778029294 | 6.11° C | 100% | 1005.4 hPa | 0 mm | 0 m/s | - | - |
| 1778028987 | 6.11° C | 100% | 1005.5 hPa | 0 mm | 0 m/s | - | - |
| 1778028737 | 6.11° C | 100% | 1005.6 hPa | 0 mm | 0 m/s | - | - |
| 1778028381 | 6.67° C | 100% | 1005.6 hPa | 0 mm | 0 m/s | - | - |
| 1778028081 | 6.67° C | 100% | 1005.7 hPa | 0 mm | 0 m/s | - | - |
| 1778027770 | 6.67° C | 100% | 1005.7 hPa | 0 mm | 0 m/s | - | - |
| 1778027475 | 6.67° C | 100% | 1005.8 hPa | 0 mm | 0 m/s | - | - |
| 1778027162 | 6.11° C | 100% | 1005.8 hPa | 0 mm | 0.45 m/s, 337° | - | - |
| 1778026893 | 6.11° C | 100% | 1005.8 hPa | 0 mm | 0 m/s | - | - |
| 1778026584 | 5.56° C | 100% | 1005.8 hPa | 0 mm | 0 m/s | - | - |
| 1778026277 | 5.56° C | 100% | 1006 hPa | 0 mm | 0 m/s | - | - |
| 1778025978 | 5.56° C | 100% | 1006.1 hPa | 0 mm | 0.45 m/s, 337° | - | - |
| 1778025670 | 5.56° C | 100% | 1006.2 hPa | 0 mm | 0.45 m/s, 337° | - | - |
| 1778025073 | 6.11° C | 100% | 1006.3 hPa | 0 mm | 0.45 m/s, 337° | - | - |
| 1778024453 | 6.11° C | 100% | 1006.3 hPa | 0 mm | 0 m/s | - | - |
| 1778024136 | 6.11° C | 100% | 1006.4 hPa | 0 mm | 0 m/s | - | - |
| 1778023842 | 6.67° C | 100% | 1006.5 hPa | 0 mm | 0 m/s | - | - |
| 1778023529 | 6.67° C | 100% | 1006.5 hPa | 0 mm | 0 m/s | - | - |
| 1778015960 | 11.11° C | 100% | 1007.4 hPa | 0 mm | 0 m/s | - | - |
| 1778015643 | 11.11° C | 100% | 1007.3 hPa | 0 mm | 0 m/s | - | - |
| 1778015357 | 11.11° C | 100% | 1007.4 hPa | 0 mm | 0.45 m/s, 337° | - | - |
| 1778014755 | 11.11° C | 100% | 1007.4 hPa | 0 mm | 0.89 m/s, 337° | - | - |
| 1778014427 | 10.56° C | 100% | 1007.5 hPa | 0 mm | 0 m/s | - | - |
* Rain since midnight (hover to see other rain measurements)
** Current wind speed in m/s (hover to see current wind gust speed)